createdAt,value
2022-11-29T00:01:27.884Z,85.87
2022-11-29T00:03:56.364Z,85.81
2022-11-29T00:06:33.123Z,85.86
2022-11-29T00:09:03.521Z,85.73
2022-11-29T00:11:53.555Z,85.96
2022-11-29T00:14:22.401Z,85.96
2022-11-29T00:16:58.212Z,86.06
2022-11-29T00:19:26.154Z,86.16
2022-11-29T00:21:53.874Z,86.15
2022-11-29T00:24:21.805Z,85.99
2022-11-29T00:26:49.589Z,85.85
2022-11-29T00:29:17.309Z,85.93
2022-11-29T00:31:45.203Z,85.78
2022-11-29T00:34:13.597Z,85.85
2022-11-29T00:36:41.586Z,85.70
2022-11-29T00:39:12.760Z,85.43
2022-11-29T00:41:40.754Z,85.75
2022-11-29T00:44:08.860Z,85.83
2022-11-29T00:46:36.639Z,86.02
2022-11-29T00:49:04.880Z,85.79
2022-11-29T00:51:32.898Z,85.74
2022-11-29T00:54:00.567Z,85.79
2022-11-29T00:56:28.275Z,85.73
2022-11-29T00:58:56.076Z,85.75
2022-11-29T01:01:23.758Z,86.07
2022-11-29T01:03:51.439Z,85.99
2022-11-29T01:06:20.403Z,85.80
2022-11-29T01:08:48.889Z,85.76
2022-11-29T01:11:23.553Z,85.84
2022-11-29T01:13:52.730Z,85.84
2022-11-29T01:16:20.510Z,85.69
2022-11-29T01:18:48.580Z,85.76
2022-11-29T01:21:19.387Z,85.85
2022-11-29T01:23:48.571Z,85.86
2022-11-29T01:26:19.598Z,85.91
2022-11-29T01:28:50.143Z,85.85
2022-11-29T01:31:23.829Z,85.82
2022-11-29T01:33:55.564Z,85.80
2022-11-29T01:36:23.371Z,85.96
2022-11-29T01:38:51.192Z,85.72
2022-11-29T01:41:25.155Z,85.90
2022-11-29T01:44:04.531Z,85.89
2022-11-29T01:46:37.469Z,85.76
2022-11-29T01:49:30.189Z,85.86
2022-11-29T01:52:04.003Z,85.67
2022-11-29T01:54:33.340Z,85.86
2022-11-29T01:57:02.696Z,85.79
2022-11-29T01:59:31.368Z,85.92
2022-11-29T02:02:07.535Z,85.92
2022-11-29T02:04:36.652Z,85.66
2022-11-29T02:07:05.337Z,85.86
2022-11-29T02:09:32.949Z,85.93
2022-11-29T02:12:38.086Z,85.88
2022-11-29T02:15:09.313Z,85.94
2022-11-29T02:17:58.659Z,86.12
2022-11-29T02:20:47.385Z,85.94
2022-11-29T02:23:48.629Z,85.97
2022-11-29T02:26:53.739Z,86.06
2022-11-29T02:29:42.476Z,86.19
2022-11-29T02:32:28.413Z,86.28
2022-11-29T02:35:05.064Z,86.33
2022-11-29T02:37:51.473Z,86.30
2022-11-29T02:40:37.537Z,86.39
2022-11-29T02:43:39.075Z,86.53
2022-11-29T02:46:13.684Z,86.48
2022-11-29T02:49:03.146Z,86.52
2022-11-29T02:51:47.651Z,86.56
2022-11-29T02:54:21.522Z,86.80
2022-11-29T02:57:01.225Z,86.92
2022-11-29T02:59:37.783Z,86.94
2022-11-29T03:02:21.174Z,86.86
2022-11-29T03:04:56.354Z,86.78
2022-11-29T03:07:36.491Z,86.83
2022-11-29T03:10:04.062Z,86.78
2022-11-29T03:12:50.452Z,86.88
2022-11-29T03:15:47.668Z,86.83
2022-11-29T03:18:52.082Z,86.89
2022-11-29T03:21:49.766Z,86.87
2022-11-29T03:24:27.298Z,86.78
2022-11-29T03:27:07.195Z,86.73
2022-11-29T03:29:41.669Z,86.74
2022-11-29T03:32:30.662Z,86.73
2022-11-29T03:35:26.177Z,86.78
2022-11-29T03:38:12.112Z,86.65
2022-11-29T03:41:02.312Z,86.71
2022-11-29T03:43:56.994Z,86.96
2022-11-29T03:46:36.203Z,87.02
2022-11-29T03:49:12.366Z,86.92
2022-11-29T03:51:58.057Z,86.95
2022-11-29T03:54:33.868Z,87.04
2022-11-29T03:57:01.836Z,87.00
2022-11-29T03:59:39.201Z,86.97
2022-11-29T04:02:15.869Z,86.94
2022-11-29T04:05:05.266Z,86.88
2022-11-29T04:07:46.524Z,86.85
2022-11-29T04:10:32.222Z,87.03
2022-11-29T04:13:30.244Z,86.87
2022-11-29T04:16:19.120Z,86.89
2022-11-29T04:19:06.604Z,87.34
2022-11-29T04:21:49.410Z,87.21
2022-11-29T04:24:55.623Z,87.27
2022-11-29T04:27:31.246Z,87.29
2022-11-29T04:30:07.702Z,87.58
2022-11-29T04:33:14.849Z,87.32
2022-11-29T04:35:56.531Z,87.50
2022-11-29T04:38:44.399Z,87.67
2022-11-29T04:41:38.412Z,87.63
2022-11-29T04:44:27.157Z,87.93
2022-11-29T04:47:03.369Z,88.06
2022-11-29T04:49:49.617Z,88.88
2022-11-29T04:52:41.760Z,89.19
2022-11-29T04:55:30.499Z,89.50
2022-11-29T04:58:14.301Z,89.57
2022-11-29T05:00:53.403Z,89.92
2022-11-29T05:03:34.422Z,89.43
2022-11-29T05:06:24.650Z,89.55
2022-11-29T05:09:19.246Z,89.65
2022-11-29T05:12:00.918Z,89.46
2022-11-29T05:14:47.458Z,89.25
2022-11-29T05:17:36.739Z,89.39
2022-11-29T05:20:27.636Z,89.39
2022-11-29T05:23:20.238Z,89.33
2022-11-29T05:25:50.621Z,89.38
2022-11-29T05:28:28.692Z,89.45
2022-11-29T05:31:31.297Z,89.43
2022-11-29T05:34:17.767Z,89.88
2022-11-29T05:36:59.085Z,89.71
2022-11-29T05:39:51.572Z,89.61
2022-11-29T05:42:40.448Z,89.84
2022-11-29T05:45:28.756Z,89.79
2022-11-29T05:48:07.311Z,89.86
2022-11-29T05:50:49.468Z,89.93
2022-11-29T05:53:32.362Z,89.86
2022-11-29T05:56:10.245Z,89.93
2022-11-29T05:59:04.124Z,89.83
2022-11-29T06:01:57.148Z,89.84
2022-11-29T06:04:34.590Z,89.70
2022-11-29T06:07:15.899Z,89.59
2022-11-29T06:10:02.043Z,89.81
2022-11-29T06:12:33.002Z,89.71
2022-11-29T06:15:07.430Z,89.77
2022-11-29T06:18:11.637Z,89.55
2022-11-29T06:20:39.224Z,89.60
2022-11-29T06:23:18.827Z,89.60
2022-11-29T06:26:04.923Z,89.55
2022-11-29T06:28:42.704Z,89.60
2022-11-29T06:31:24.780Z,89.53
2022-11-29T06:34:10.423Z,89.60
2022-11-29T06:37:01.035Z,89.69
2022-11-29T06:39:28.975Z,89.77
2022-11-29T06:41:56.733Z,89.67
2022-11-29T06:44:24.724Z,90.06
2022-11-29T06:47:05.211Z,89.80
2022-11-29T06:49:58.781Z,89.82
2022-11-29T06:52:45.527Z,90.19
2022-11-29T06:55:28.408Z,90.09
2022-11-29T06:58:43.759Z,90.24
2022-11-29T07:01:28.209Z,90.23
2022-11-29T07:04:17.747Z,90.40
2022-11-29T07:06:45.725Z,90.40
2022-11-29T07:09:21.429Z,90.16
2022-11-29T07:11:49.464Z,90.14
2022-11-29T07:14:17.337Z,90.46
2022-11-29T07:17:02.808Z,91.12
2022-11-29T07:19:50.997Z,90.69
2022-11-29T07:22:37.662Z,90.52
2022-11-29T07:25:27.094Z,90.58
2022-11-29T07:28:09.129Z,90.32
2022-11-29T07:31:04.371Z,90.17
2022-11-29T07:34:08.710Z,90.19
2022-11-29T07:36:51.483Z,90.04
2022-11-29T07:39:33.465Z,90.18
2022-11-29T07:42:28.322Z,90.06
2022-11-29T07:45:23.612Z,90.03
2022-11-29T07:47:51.513Z,90.04
2022-11-29T07:50:20.291Z,89.93
2022-11-29T07:52:48.899Z,89.99
2022-11-29T07:55:22.665Z,89.92
2022-11-29T07:57:50.794Z,90.04
2022-11-29T08:00:20.404Z,89.82
2022-11-29T08:02:49.258Z,89.77
2022-11-29T08:05:17.391Z,89.78
2022-11-29T08:07:45.175Z,89.84
2022-11-29T08:10:17.569Z,89.79
2022-11-29T08:12:48.574Z,89.78
2022-11-29T08:15:16.998Z,89.78
2022-11-29T08:17:44.948Z,89.65
2022-11-29T08:20:14.377Z,89.64
2022-11-29T08:22:42.465Z,89.41
2022-11-29T08:25:11.466Z,89.41
2022-11-29T08:27:40.136Z,89.32
2022-11-29T08:30:08.664Z,89.44
2022-11-29T08:32:36.412Z,89.59
2022-11-29T08:35:04.136Z,89.22
2022-11-29T08:37:31.766Z,89.41
2022-11-29T08:40:00.114Z,89.35
2022-11-29T08:42:27.850Z,89.34
2022-11-29T08:44:55.613Z,89.33
2022-11-29T08:47:38.431Z,89.19
2022-11-29T08:50:13.320Z,89.23
2022-11-29T08:53:03.191Z,89.12
2022-11-29T08:55:36.652Z,89.04
2022-11-29T08:58:08.119Z,89.30
2022-11-29T09:00:36.301Z,89.28
2022-11-29T09:03:24.608Z,89.37
2022-11-29T09:05:53.072Z,89.37
2022-11-29T09:08:21.265Z,89.12
2022-11-29T09:10:49.018Z,89.04
2022-11-29T09:13:17.052Z,89.28
2022-11-29T09:15:44.809Z,89.17
2022-11-29T09:18:12.586Z,89.04
2022-11-29T09:20:44.021Z,88.98
2022-11-29T09:23:13.229Z,88.58
2022-11-29T09:25:41.086Z,88.76
2022-11-29T09:28:08.782Z,88.77
2022-11-29T09:30:39.040Z,88.71
2022-11-29T09:33:06.673Z,88.66
2022-11-29T09:35:35.807Z,88.72
2022-11-29T09:38:03.494Z,88.53
2022-11-29T09:40:55.628Z,88.64
2022-11-29T09:44:01.869Z,88.10
2022-11-29T09:46:38.167Z,88.45
2022-11-29T09:49:26.850Z,88.42
2022-11-29T09:52:14.012Z,88.59
2022-11-29T09:55:12.567Z,88.31
2022-11-29T09:57:42.427Z,88.13
2022-11-29T10:00:17.298Z,88.35
2022-11-29T10:02:49.474Z,88.23
2022-11-29T10:05:25.313Z,88.09
2022-11-29T10:08:08.437Z,87.64
2022-11-29T10:10:44.701Z,87.53
2022-11-29T10:13:18.291Z,87.69
2022-11-29T10:15:48.814Z,87.58
2022-11-29T10:18:41.411Z,87.47
2022-11-29T10:21:15.363Z,86.52
2022-11-29T10:23:44.969Z,86.49
2022-11-29T10:26:14.484Z,86.46
2022-11-29T10:28:48.550Z,85.54
2022-11-29T10:31:22.740Z,85.74
2022-11-29T10:33:51.329Z,86.01
2022-11-29T10:36:28.181Z,85.20
2022-11-29T10:39:02.487Z,85.26
2022-11-29T10:41:30.246Z,85.56
2022-11-29T10:44:00.265Z,85.65
2022-11-29T10:46:37.188Z,85.26
2022-11-29T10:49:14.283Z,85.07
2022-11-29T10:51:42.319Z,84.77
2022-11-29T10:54:31.028Z,84.86
2022-11-29T10:57:01.502Z,85.51
2022-11-29T10:59:31.620Z,85.36
2022-11-29T11:01:59.686Z,85.02
2022-11-29T11:04:35.157Z,84.50
2022-11-29T11:07:06.015Z,83.80
2022-11-29T11:09:34.171Z,83.14
2022-11-29T11:12:06.174Z,84.21
2022-11-29T11:14:38.699Z,84.45
2022-11-29T11:17:17.469Z,83.91
2022-11-29T11:20:06.814Z,84.08
2022-11-29T11:22:36.115Z,84.38
2022-11-29T11:25:26.283Z,84.29
2022-11-29T11:27:55.170Z,84.59
2022-11-29T11:30:29.022Z,84.42
2022-11-29T11:33:41.924Z,84.40
2022-11-29T11:36:15.989Z,84.95
2022-11-29T11:38:55.277Z,84.28
2022-11-29T11:41:56.161Z,83.91
2022-11-29T11:44:47.499Z,84.59
2022-11-29T11:47:36.892Z,84.45
2022-11-29T11:50:08.311Z,84.25
2022-11-29T11:52:49.890Z,84.74
2022-11-29T11:55:44.866Z,83.82
2022-11-29T11:58:15.503Z,83.04
2022-11-29T12:01:04.335Z,84.03
2022-11-29T12:03:53.879Z,83.69
2022-11-29T12:06:59.581Z,83.56
2022-11-29T12:09:42.157Z,83.70
2022-11-29T12:12:31.075Z,83.83
2022-11-29T12:15:21.842Z,83.78
2022-11-29T12:17:57.793Z,83.98
2022-11-29T12:20:29.447Z,84.17
2022-11-29T12:23:24.977Z,84.45
2022-11-29T12:26:48.890Z,84.72
2022-11-29T12:29:16.400Z,84.08
2022-11-29T12:31:43.988Z,85.05
2022-11-29T12:34:37.107Z,85.07
2022-11-29T12:37:23.178Z,85.48
2022-11-29T12:40:21.890Z,85.56
2022-11-29T12:43:29.564Z,86.30
2022-11-29T12:46:15.363Z,86.32
2022-11-29T12:49:01.740Z,86.21
2022-11-29T12:51:56.001Z,86.56
2022-11-29T12:55:01.352Z,87.46
2022-11-29T12:57:41.226Z,86.88
2022-11-29T13:00:17.755Z,87.22
2022-11-29T13:03:21.797Z,87.13
2022-11-29T13:06:19.845Z,87.30
2022-11-29T13:09:08.637Z,87.41
2022-11-29T13:11:46.650Z,87.90
2022-11-29T13:17:28.241Z,88.11
2022-11-29T13:20:14.355Z,88.33
2022-11-29T13:23:06.535Z,87.82
2022-11-29T13:25:43.659Z,88.40
2022-11-29T13:28:17.172Z,88.08
2022-11-29T13:30:45.595Z,88.03
2022-11-29T13:33:25.915Z,88.71
2022-11-29T13:36:08.520Z,88.96
2022-11-29T13:38:42.566Z,88.84
2022-11-29T13:41:32.064Z,89.02
2022-11-29T13:44:12.424Z,89.46
2022-11-29T13:47:01.597Z,89.18
2022-11-29T13:49:59.177Z,89.57
2022-11-29T13:52:38.638Z,89.31
2022-11-29T13:55:24.128Z,89.34
2022-11-29T13:58:28.120Z,89.76
2022-11-29T14:01:03.638Z,89.71
2022-11-29T14:03:33.606Z,90.36
2022-11-29T14:06:13.572Z,89.92
2022-11-29T14:11:43.810Z,90.10
2022-11-29T14:14:37.004Z,89.98
2022-11-29T14:17:07.618Z,90.23
2022-11-29T14:19:38.051Z,90.21
2022-11-29T14:22:20.513Z,90.29
2022-11-29T14:25:01.055Z,90.40
2022-11-29T14:27:28.587Z,91.06
2022-11-29T14:29:56.733Z,90.68
2022-11-29T14:32:25.872Z,90.79
2022-11-29T14:35:25.417Z,90.78
2022-11-29T14:37:56.767Z,91.28
2022-11-29T14:40:42.708Z,91.51
2022-11-29T14:43:23.679Z,91.26
2022-11-29T14:46:29.148Z,91.54
2022-11-29T14:48:57.293Z,91.80
2022-11-29T14:51:27.509Z,91.76
2022-11-29T14:54:16.589Z,91.69
2022-11-29T14:56:46.111Z,91.89
2022-11-29T14:59:51.307Z,91.91
2022-11-29T15:02:35.912Z,92.06
2022-11-29T15:05:15.513Z,92.35
2022-11-29T15:07:54.402Z,92.39
2022-11-29T15:10:30.870Z,92.35
2022-11-29T15:13:01.563Z,92.32
2022-11-29T15:15:44.154Z,92.36
2022-11-29T15:18:28.058Z,93.07
2022-11-29T15:21:10.772Z,92.75
2022-11-29T15:23:43.683Z,93.08
2022-11-29T15:26:20.251Z,93.30
2022-11-29T15:28:48.192Z,93.33
2022-11-29T15:31:19.952Z,93.01
2022-11-29T15:33:50.346Z,93.57
2022-11-29T15:36:23.009Z,93.81
2022-11-29T15:38:55.919Z,93.63
2022-11-29T15:41:32.165Z,93.80
2022-11-29T15:44:03.218Z,93.92
2022-11-29T15:46:33.970Z,94.46
2022-11-29T15:49:27.726Z,94.75
2022-11-29T15:51:59.351Z,94.63
2022-11-29T15:54:33.275Z,94.50
2022-11-29T15:57:05.622Z,94.60
2022-11-29T15:59:41.248Z,94.61
2022-11-29T16:02:20.785Z,95.22
2022-11-29T16:04:51.447Z,95.41
2022-11-29T16:07:21.081Z,95.55
2022-11-29T16:10:02.046Z,95.51
2022-11-29T16:12:29.920Z,95.66
2022-11-29T16:15:00.118Z,95.97
2022-11-29T16:17:30.629Z,95.99
2022-11-29T16:20:17.722Z,96.13
2022-11-29T16:22:45.660Z,96.20
2022-11-29T16:25:19.882Z,96.64
2022-11-29T16:27:48.718Z,96.34
2022-11-29T16:30:28.758Z,96.87
2022-11-29T16:33:01.684Z,96.77
2022-11-29T16:35:32.195Z,96.93
2022-11-29T16:38:01.286Z,97.33
2022-11-29T16:40:31.824Z,97.20
2022-11-29T16:43:05.514Z,97.18
2022-11-29T16:45:42.458Z,97.35
2022-11-29T16:48:39.343Z,97.33
2022-11-29T16:51:24.942Z,97.77
2022-11-29T16:53:54.580Z,98.05
2022-11-29T16:56:25.568Z,97.84
2022-11-29T16:59:26.929Z,98.03
2022-11-29T17:01:52.072Z,98.89
2022-11-29T17:04:23.904Z,98.78
2022-11-29T17:06:53.929Z,99.32
2022-11-29T17:09:30.825Z,98.81
2022-11-29T17:12:02.092Z,98.68
2022-11-29T17:14:30.631Z,98.52
2022-11-29T17:17:01.505Z,98.77
2022-11-29T17:19:30.522Z,98.76
2022-11-29T17:21:58.669Z,99.56
2022-11-29T17:24:26.609Z,99.61
2022-11-29T17:26:54.353Z,100.00
2022-11-29T17:29:22.060Z,100.00
2022-11-29T17:31:51.498Z,99.93
2022-11-29T17:34:19.362Z,99.78
2022-11-29T17:36:47.179Z,100.00
2022-11-29T17:39:16.727Z,100.00
2022-11-29T17:41:44.645Z,100.00
2022-11-29T17:44:12.332Z,100.00
2022-11-29T17:46:40.204Z,100.00
2022-11-29T17:49:10.513Z,100.00
2022-11-29T17:51:54.883Z,100.00
2022-11-29T17:54:23.640Z,100.00
2022-11-29T17:56:51.917Z,100.00
2022-11-29T17:59:19.748Z,100.00
2022-11-29T18:01:50.440Z,100.00
2022-11-29T18:04:18.411Z,100.00
2022-11-29T18:06:50.630Z,100.00
2022-11-29T18:09:19.881Z,100.00
2022-11-29T18:11:50.116Z,100.00
2022-11-29T18:14:29.294Z,100.00
2022-11-29T18:16:57.041Z,100.00
2022-11-29T18:19:24.977Z,100.00
2022-11-29T18:21:53.250Z,100.00
2022-11-29T18:24:21.038Z,100.00
2022-11-29T18:26:48.954Z,100.00
2022-11-29T18:29:16.851Z,100.00
2022-11-29T18:31:47.195Z,100.00
2022-11-29T18:34:15.703Z,100.00
2022-11-29T18:36:46.236Z,100.00
2022-11-29T18:39:19.270Z,100.00
2022-11-29T18:41:49.790Z,100.00
2022-11-29T18:44:20.446Z,100.00
2022-11-29T18:46:48.577Z,100.00
2022-11-29T18:49:18.400Z,100.00
2022-11-29T18:51:47.271Z,100.00
2022-11-29T18:54:16.778Z,100.00
2022-11-29T18:56:45.855Z,100.00
2022-11-29T18:59:17.964Z,100.00
2022-11-29T19:01:48.835Z,100.00
2022-11-29T19:04:21.836Z,100.00
2022-11-29T19:06:50.292Z,100.00
2022-11-29T19:09:24.903Z,100.00
2022-11-29T19:11:52.761Z,100.00
2022-11-29T19:14:20.986Z,100.00
2022-11-29T19:16:50.660Z,100.00
2022-11-29T19:19:20.051Z,100.00
2022-11-29T19:21:47.877Z,100.00
2022-11-29T19:24:16.913Z,100.00
2022-11-29T19:26:46.476Z,100.00
2022-11-29T19:29:15.296Z,100.00
2022-11-29T19:31:43.773Z,100.00
2022-11-29T19:34:11.760Z,100.00
2022-11-29T19:36:44.767Z,100.00
2022-11-29T19:39:15.568Z,100.00
2022-11-29T19:41:48.235Z,100.00
2022-11-29T19:44:17.726Z,100.00
2022-11-29T19:46:49.303Z,100.00
2022-11-29T19:49:17.068Z,100.00
2022-11-29T19:51:44.886Z,100.00
2022-11-29T19:54:13.127Z,100.00
2022-11-29T19:56:41.001Z,100.00
2022-11-29T19:59:09.501Z,100.00
2022-11-29T20:01:41.241Z,100.00
2022-11-29T20:04:10.740Z,100.00
2022-11-29T20:06:38.526Z,100.00
2022-11-29T20:09:07.304Z,100.00
2022-11-29T20:11:35.071Z,100.00
2022-11-29T20:14:04.665Z,100.00
2022-11-29T20:16:32.665Z,100.00
2022-11-29T20:19:00.748Z,100.00
2022-11-29T20:21:33.311Z,100.00
2022-11-29T20:24:03.717Z,100.00
2022-11-29T20:26:33.982Z,100.00
2022-11-29T20:29:02.872Z,100.00
2022-11-29T20:31:31.216Z,100.00
2022-11-29T20:33:59.285Z,100.00
2022-11-29T20:36:48.993Z,100.00
2022-11-29T20:39:43.308Z,100.00
2022-11-29T20:42:40.070Z,100.00
2022-11-29T20:45:10.146Z,100.00
2022-11-29T20:48:02.010Z,100.00
2022-11-29T20:50:32.808Z,100.00
2022-11-29T20:53:17.399Z,100.00
2022-11-29T20:55:48.032Z,100.00
2022-11-29T20:58:16.459Z,100.00
2022-11-29T21:00:44.234Z,100.00
2022-11-29T21:03:19.268Z,100.00
2022-11-29T21:05:47.792Z,100.00
2022-11-29T21:08:17.307Z,100.00
2022-11-29T21:10:45.175Z,100.00
2022-11-29T21:13:14.276Z,100.00
2022-11-29T21:15:42.644Z,100.00
2022-11-29T21:18:27.825Z,100.00
2022-11-29T21:21:17.620Z,100.00
2022-11-29T21:23:58.291Z,100.00
2022-11-29T21:26:34.947Z,100.00
2022-11-29T21:29:15.241Z,100.00
2022-11-29T21:31:43.140Z,100.00
2022-11-29T21:34:10.959Z,100.00
2022-11-29T21:36:39.815Z,100.00
2022-11-29T21:39:09.083Z,100.00
2022-11-29T21:41:37.348Z,100.00
2022-11-29T21:44:07.141Z,100.00
2022-11-29T21:46:35.628Z,100.00
2022-11-29T21:49:03.451Z,100.00
2022-11-29T21:51:31.117Z,100.00
2022-11-29T21:53:58.752Z,100.00
2022-11-29T21:56:26.579Z,100.00
2022-11-29T21:58:54.335Z,100.00
2022-11-29T22:01:22.351Z,100.00
2022-11-29T22:03:53.654Z,100.00
2022-11-29T22:06:22.283Z,100.00
2022-11-29T22:08:50.001Z,100.00
2022-11-29T22:11:31.742Z,100.00
2022-11-29T22:14:19.773Z,100.00
2022-11-29T22:16:50.243Z,100.00
2022-11-29T22:19:20.404Z,100.00
2022-11-29T22:21:50.533Z,100.00
2022-11-29T22:24:20.353Z,100.00
2022-11-29T22:26:49.021Z,100.00
2022-11-29T22:29:16.956Z,100.00
2022-11-29T22:31:46.817Z,100.00
2022-11-29T22:34:15.048Z,100.00
2022-11-29T22:36:43.384Z,100.00
2022-11-29T22:39:11.094Z,100.00
2022-11-29T22:41:39.858Z,100.00
2022-11-29T22:44:08.300Z,100.00
2022-11-29T22:46:36.813Z,100.00
2022-11-29T22:49:04.773Z,100.00
2022-11-29T22:51:36.297Z,100.00
2022-11-29T22:54:07.711Z,100.00
2022-11-29T22:56:38.578Z,100.00
2022-11-29T22:59:06.908Z,100.00
2022-11-29T23:01:36.841Z,100.00
2022-11-29T23:04:08.167Z,100.00
2022-11-29T23:06:39.009Z,100.00
2022-11-29T23:09:11.600Z,100.00
2022-11-29T23:11:39.904Z,100.00
2022-11-29T23:14:07.783Z,100.00
2022-11-29T23:16:35.602Z,100.00
2022-11-29T23:19:03.466Z,100.00
2022-11-29T23:21:36.383Z,100.00
2022-11-29T23:24:04.783Z,100.00
2022-11-29T23:26:40.521Z,100.00
2022-11-29T23:29:11.420Z,100.00
2022-11-29T23:31:39.928Z,100.00
2022-11-29T23:34:08.792Z,100.00
2022-11-29T23:36:36.504Z,100.00
2022-11-29T23:39:04.243Z,100.00
2022-11-29T23:41:31.906Z,100.00
2022-11-29T23:44:00.746Z,100.00
2022-11-29T23:46:28.470Z,100.00
2022-11-29T23:48:56.248Z,100.00
2022-11-29T23:51:23.919Z,100.00
2022-11-29T23:53:55.581Z,100.00
2022-11-29T23:56:23.559Z,100.00
2022-11-29T23:58:51.331Z,100.00
